TimeEDT,TemperatureF,Dew PointF,Humidity,Sea Level PressureIn,VisibilityMPH,Wind Direction,Wind SpeedMPH,Gust SpeedMPH,PrecipitationIn,Events,Conditions,WindDirDegrees,DateUTC
12:53 AM,69.1,64.9,87,29.96,10.0,Calm,Calm,-,N/A,,Partly Cloudy,0,2013-09-12 04:53:00
1:53 AM,70.0,66.0,87,29.96,10.0,WSW,4.6,-,N/A,,Overcast,240,2013-09-12 05:53:00
2:53 AM,70.0,66.0,87,29.95,10.0,WSW,4.6,-,N/A,,Scattered Clouds,240,2013-09-12 06:53:00
3:53 AM,68.0,64.9,90,29.94,10.0,SW,4.6,-,N/A,,Clear,230,2013-09-12 07:53:00
4:53 AM,68.0,64.0,87,29.93,10.0,West,4.6,-,N/A,,Clear,270,2013-09-12 08:53:00
5:53 AM,69.1,64.9,87,29.93,10.0,West,5.8,-,N/A,,Clear,280,2013-09-12 09:53:00
6:53 AM,68.0,64.9,90,29.95,10.0,WNW,5.8,-,N/A,,Clear,300,2013-09-12 10:53:00
7:12 AM,68.0,64.4,88,29.96,10.0,NW,6.9,-,N/A,,Mostly Cloudy,310,2013-09-12 11:12:00
7:53 AM,66.9,63.0,87,29.96,10.0,North,10.4,-,N/A,,Mostly Cloudy,350,2013-09-12 11:53:00
8:19 AM,66.2,62.6,88,29.97,10.0,North,5.8,-,N/A,,Clear,350,2013-09-12 12:19:00
8:53 AM,66.9,60.1,79,29.97,10.0,North,8.1,-,N/A,,Clear,350,2013-09-12 12:53:00
9:53 AM,68.0,57.0,68,29.97,10.0,North,8.1,-,N/A,,Clear,350,2013-09-12 13:53:00
10:53 AM,73.0,54.0,51,29.98,10.0,North,9.2,-,N/A,,Clear,350,2013-09-12 14:53:00
11:53 AM,73.9,51.1,45,29.97,10.0,North,4.6,-,N/A,,Clear,350,2013-09-12 15:53:00
12:53 PM,75.9,52.0,43,29.96,10.0,Variable,5.8,-,N/A,,Clear,0,2013-09-12 16:53:00
1:53 PM,77.0,53.1,43,29.94,10.0,NNW,4.6,-,N/A,,Scattered Clouds,340,2013-09-12 17:53:00
2:53 PM,77.0,54.0,45,29.93,10.0,Variable,6.9,-,N/A,,Scattered Clouds,0,2013-09-12 18:53:00
3:53 PM,78.1,54.0,43,29.91,10.0,NNW,6.9,-,N/A,,Scattered Clouds,330,2013-09-12 19:53:00
4:53 PM,73.9,54.0,50,29.90,10.0,North,10.4,-,N/A,,Partly Cloudy,360,2013-09-12 20:53:00
5:53 PM,72.0,55.0,55,29.91,10.0,NNW,17.3,24.2,N/A,,Mostly Cloudy,330,2013-09-12 21:53:00
6:53 PM,68.0,55.0,63,29.94,10.0,North,16.1,23.0,0.00,,Mostly Cloudy,360,2013-09-12 22:53:00
7:53 PM,66.9,52.0,59,29.96,10.0,NNW,15.0,-,N/A,,Scattered Clouds,340,2013-09-12 23:53:00
8:53 PM,62.1,50.0,65,29.99,10.0,NNW,8.1,-,N/A,,Partly Cloudy,340,2013-09-13 00:53:00
9:53 PM,60.1,51.1,72,30.01,10.0,North,10.4,-,N/A,,Clear,350,2013-09-13 01:53:00
10:53 PM,59.0,50.0,72,30.03,10.0,North,12.7,-,N/A,,Clear,350,2013-09-13 02:53:00
11:53 PM,57.9,46.9,67,30.04,10.0,North,13.8,20.7,N/A,,Partly Cloudy,360,2013-09-13 03:53:00